East Shelburn, Indiana
Current Conditions -  °F | °C
As of 5:15 PM on Thursday 27 Nov 2014 (Local Time) from KHUF Reporting Station
Light Snow Light Snow  
Wind Chill: 20°   Ceiling: 2100
Heat Index: 28°   Visibility: 1.7mi
Dew Point: 22°   Wind: 8mph
Humidity: 78%   Direction: 310°NW
Pressure: 30.41"   Gusts: NA
Location:  39.2094°N, 87.3438°W
Report Text: KHUF 272215Z 31007KT 1 3/4SM -SN SCT015 BKN021 OVC030 M02/M06 A3041 RMK AO2 P0000 T10221056
Loading
Personal Weather Stations






























Interactive Weather Map New forecast layout! Learn more

10-Day Weather Forecast

Advertisements
Track Severe Weather on mobile